ADDS METAR Data INFO
IDs: Format: Raw Decoded Include TAF

Data at: 0459 UTC 21 Sep 2017

KPNS 210453Z AUTO 00000KT 10SM CLR 26/23 A2999 RMK AO2 SLP157 T02560228

KPNS 202320Z 2100/2124 08003KT P6SM VCSH SCT035 SCT120 BKN250
  FM210200 22005KT P6SM SCT050 BKN150
  TEMPO 2110/2113 5SM BR
  FM211600 10006KT P6SM VCSH BKN035 BKN250
  PROB30 2118/2124 5SM TSRA BKN030CB